createdAt,value
2023-03-17T00:01:54.954Z,6.29
2023-03-17T00:04:26.209Z,6.41
2023-03-17T00:06:53.566Z,6.49
2023-03-17T00:09:23.908Z,6.45
2023-03-17T00:11:50.854Z,6.44
2023-03-17T00:14:18.104Z,6.47
2023-03-17T00:16:49.079Z,6.46
2023-03-17T00:19:18.220Z,6.38
2023-03-17T00:21:47.038Z,6.49
2023-03-17T00:24:15.209Z,6.53
2023-03-17T00:26:42.577Z,6.42
2023-03-17T00:29:18.696Z,6.43
2023-03-17T00:31:46.014Z,6.45
2023-03-17T00:34:16.680Z,6.46
2023-03-17T00:36:47.955Z,6.42
2023-03-17T00:41:42.392Z,6.37
2023-03-17T00:44:09.786Z,6.42
2023-03-17T00:46:44.711Z,6.50
2023-03-17T00:49:21.257Z,6.52
2023-03-17T00:51:48.729Z,6.49
2023-03-17T00:54:18.112Z,6.41
2023-03-17T00:56:48.065Z,6.47
2023-03-17T00:59:19.433Z,6.52
2023-03-17T01:01:50.108Z,6.52
2023-03-17T01:04:16.803Z,6.46
2023-03-17T01:06:43.489Z,6.51
2023-03-17T01:09:14.765Z,6.54
2023-03-17T01:11:46.360Z,6.59
2023-03-17T01:14:13.040Z,6.60
2023-03-17T01:16:43.529Z,6.56
2023-03-17T01:19:14.893Z,6.57
2023-03-17T01:21:42.512Z,6.59
2023-03-17T01:24:09.631Z,6.58
2023-03-17T01:26:37.553Z,6.64
2023-03-17T01:29:04.887Z,6.75
2023-03-17T01:31:31.572Z,6.67
2023-03-17T01:33:58.026Z,6.59
2023-03-17T01:36:31.365Z,6.71
2023-03-17T01:38:58.646Z,6.65
2023-03-17T01:41:25.128Z,6.66
2023-03-17T01:43:51.733Z,6.75
2023-03-17T01:46:29.203Z,6.74
2023-03-17T01:49:16.269Z,6.72
2023-03-17T01:52:10.625Z,6.74
2023-03-17T01:54:46.145Z,6.67
2023-03-17T01:57:19.909Z,6.61
2023-03-17T01:59:51.642Z,6.59
2023-03-17T02:02:23.502Z,6.64
2023-03-17T02:04:52.223Z,6.64
2023-03-17T02:07:20.643Z,6.62
2023-03-17T02:09:47.854Z,6.70
2023-03-17T02:12:19.690Z,6.72
2023-03-17T02:14:46.754Z,6.63
2023-03-17T02:17:13.485Z,6.66
2023-03-17T02:19:40.061Z,6.55
2023-03-17T02:22:06.718Z,6.54
2023-03-17T02:24:39.181Z,6.46
2023-03-17T02:27:16.252Z,6.49
2023-03-17T02:29:45.740Z,6.50
2023-03-17T02:32:15.878Z,6.51
2023-03-17T02:34:42.379Z,6.61
2023-03-17T02:37:17.799Z,6.52
2023-03-17T02:39:44.730Z,6.61
2023-03-17T02:42:12.750Z,6.61
2023-03-17T02:44:41.999Z,6.67
2023-03-17T02:47:09.919Z,6.65
2023-03-17T02:49:37.831Z,6.66
2023-03-17T02:52:05.360Z,6.74
2023-03-17T02:54:31.900Z,6.72
2023-03-17T02:56:58.638Z,6.78
2023-03-17T02:59:25.214Z,6.69
2023-03-17T03:01:51.906Z,6.61
2023-03-17T03:04:20.037Z,6.64
2023-03-17T03:06:47.757Z,6.47
2023-03-17T03:09:14.931Z,6.46
2023-03-17T03:11:41.745Z,6.41
2023-03-17T03:14:08.346Z,6.41
2023-03-17T03:16:39.520Z,6.60
2023-03-17T03:19:07.011Z,6.65
2023-03-17T03:21:33.817Z,6.38
2023-03-17T03:24:00.366Z,6.36
2023-03-17T03:26:29.638Z,6.23
2023-03-17T03:28:58.455Z,6.11
2023-03-17T03:31:25.077Z,6.08
2023-03-17T03:33:51.676Z,6.07
2023-03-17T03:36:18.723Z,6.09
2023-03-17T03:38:47.553Z,6.23
2023-03-17T03:41:16.870Z,6.20
2023-03-17T03:43:43.338Z,6.13
2023-03-17T03:46:09.816Z,6.25
2023-03-17T03:48:36.356Z,6.12
2023-03-17T03:51:02.849Z,6.25
2023-03-17T03:53:29.463Z,6.37
2023-03-17T03:55:56.095Z,6.29
2023-03-17T03:58:22.779Z,6.44
2023-03-17T04:00:49.312Z,6.68
2023-03-17T04:03:16.573Z,6.63
2023-03-17T04:05:43.230Z,6.59
2023-03-17T04:08:11.147Z,6.61
2023-03-17T04:10:37.633Z,6.49
2023-03-17T04:13:04.102Z,6.46
2023-03-17T04:15:30.596Z,6.26
2023-03-17T04:17:57.078Z,6.18
2023-03-17T04:20:24.965Z,5.94
2023-03-17T04:22:56.372Z,5.93
2023-03-17T04:25:23.013Z,5.97
2023-03-17T04:27:49.457Z,6.05
2023-03-17T04:30:17.040Z,6.12
2023-03-17T04:32:47.629Z,6.02
2023-03-17T04:35:17.151Z,6.01
2023-03-17T04:37:43.703Z,6.01
2023-03-17T04:40:16.313Z,5.99
2023-03-17T04:42:42.882Z,5.87
2023-03-17T04:45:11.934Z,5.87
2023-03-17T04:47:39.449Z,5.81
2023-03-17T04:50:08.099Z,5.72
2023-03-17T04:52:35.562Z,5.52
2023-03-17T04:55:02.087Z,5.46
2023-03-17T04:57:28.634Z,5.47
2023-03-17T04:59:58.157Z,5.49
2023-03-17T05:02:24.678Z,5.42
2023-03-17T05:04:51.177Z,5.39
2023-03-17T05:07:18.013Z,5.31
2023-03-17T05:09:47.973Z,5.31
2023-03-17T05:12:14.915Z,5.25
2023-03-17T05:14:41.565Z,5.31
2023-03-17T05:17:12.740Z,5.31
2023-03-17T05:19:39.268Z,5.14
2023-03-17T05:22:05.848Z,5.12
2023-03-17T05:24:32.700Z,5.11
2023-03-17T05:26:59.260Z,5.15
2023-03-17T05:29:27.852Z,5.14
2023-03-17T05:31:56.821Z,5.09
2023-03-17T05:34:23.248Z,5.13
2023-03-17T05:36:53.246Z,5.18
2023-03-17T05:39:19.709Z,5.57
2023-03-17T05:41:47.139Z,5.95
2023-03-17T05:44:14.108Z,6.18
2023-03-17T05:46:47.743Z,6.29
2023-03-17T05:49:14.297Z,6.33
2023-03-17T05:51:41.927Z,6.30
2023-03-17T05:54:08.780Z,6.33
2023-03-17T05:56:35.376Z,6.36
2023-03-17T05:59:02.365Z,6.42
2023-03-17T06:01:29.597Z,6.53
2023-03-17T06:03:56.141Z,6.88
2023-03-17T06:06:26.241Z,6.99
2023-03-17T06:08:53.020Z,6.84
2023-03-17T06:11:21.538Z,6.91
2023-03-17T06:13:48.089Z,6.75
2023-03-17T06:16:14.812Z,6.70
2023-03-17T06:18:46.176Z,6.68
2023-03-17T06:21:13.711Z,6.62
2023-03-17T06:23:40.306Z,6.62
2023-03-17T06:26:07.154Z,6.43
2023-03-17T06:28:33.625Z,6.38
2023-03-17T06:31:00.197Z,6.32
2023-03-17T06:33:27.212Z,6.39
2023-03-17T06:35:53.948Z,6.56
2023-03-17T06:38:20.849Z,6.80
2023-03-17T06:40:49.500Z,7.25
2023-03-17T06:43:17.400Z,7.66
2023-03-17T06:45:43.901Z,8.02
2023-03-17T06:48:11.763Z,8.33
2023-03-17T06:50:38.228Z,8.56
2023-03-17T06:53:04.805Z,8.62
2023-03-17T06:55:32.016Z,8.67
2023-03-17T06:57:59.039Z,9.05
2023-03-17T07:00:26.014Z,9.32
2023-03-17T07:02:52.690Z,9.70
2023-03-17T07:05:19.230Z,9.87
2023-03-17T07:07:46.049Z,10.06
2023-03-17T07:10:13.825Z,10.32
2023-03-17T07:12:40.249Z,10.59
2023-03-17T07:15:07.159Z,10.79
2023-03-17T07:17:33.699Z,11.16
2023-03-17T07:20:00.226Z,11.23
2023-03-17T07:22:27.378Z,11.42
2023-03-17T07:24:53.809Z,11.59
2023-03-17T07:27:23.042Z,11.84
2023-03-17T07:29:49.710Z,12.12
2023-03-17T07:32:16.301Z,12.12
2023-03-17T07:34:43.328Z,12.39
2023-03-17T07:37:10.444Z,12.55
2023-03-17T07:39:36.958Z,12.77
2023-03-17T07:42:03.713Z,12.77
2023-03-17T07:44:33.275Z,12.68
2023-03-17T07:46:59.755Z,12.95
2023-03-17T07:49:40.324Z,12.76
2023-03-17T07:52:08.514Z,12.81
2023-03-17T07:54:36.280Z,12.89
2023-03-17T07:57:03.412Z,13.02
2023-03-17T07:59:30.083Z,12.75
2023-03-17T08:02:00.345Z,12.17
2023-03-17T08:04:33.256Z,12.46
2023-03-17T08:06:59.870Z,12.62
2023-03-17T08:09:27.092Z,13.07
2023-03-17T08:11:53.572Z,13.19
2023-03-17T08:14:24.793Z,12.96
2023-03-17T08:16:51.359Z,13.09
2023-03-17T08:19:18.059Z,13.51
2023-03-17T08:21:44.639Z,14.22
2023-03-17T08:24:11.160Z,14.30
2023-03-17T08:26:37.742Z,14.96
2023-03-17T08:29:07.493Z,15.32
2023-03-17T08:31:34.234Z,15.77
2023-03-17T08:34:02.648Z,15.72
2023-03-17T08:36:29.834Z,16.10
2023-03-17T08:38:56.306Z,16.36
2023-03-17T08:41:29.281Z,16.84
2023-03-17T08:43:56.263Z,17.04
2023-03-17T08:46:28.884Z,17.34
2023-03-17T08:48:56.813Z,17.19
2023-03-17T08:51:26.091Z,17.79
2023-03-17T08:53:54.507Z,17.28
2023-03-17T08:56:21.766Z,17.63
2023-03-17T08:58:49.385Z,17.61
2023-03-17T09:01:17.001Z,17.28
2023-03-17T09:03:49.540Z,17.60
2023-03-17T09:06:16.394Z,17.33
2023-03-17T09:08:48.117Z,17.09
2023-03-17T09:11:17.745Z,17.43
2023-03-17T09:13:55.573Z,17.67
2023-03-17T09:16:23.974Z,18.07
2023-03-17T09:18:51.074Z,17.59
2023-03-17T09:21:17.807Z,17.98
2023-03-17T09:24:01.694Z,18.71
2023-03-17T09:26:28.939Z,18.38
2023-03-17T09:28:55.548Z,18.29
2023-03-17T09:31:22.208Z,17.61
2023-03-17T09:33:52.607Z,18.09
2023-03-17T09:36:20.410Z,18.61
2023-03-17T09:38:47.172Z,19.06
2023-03-17T09:41:18.392Z,18.31
2023-03-17T09:44:06.814Z,18.26
2023-03-17T09:46:40.957Z,18.23
2023-03-17T09:49:11.922Z,17.97
2023-03-17T09:51:39.067Z,18.04
2023-03-17T09:54:15.372Z,17.25
2023-03-17T09:56:48.264Z,17.50
2023-03-17T09:59:30.071Z,17.41
2023-03-17T10:01:57.164Z,17.42
2023-03-17T10:04:33.141Z,16.96
2023-03-17T10:07:04.983Z,17.08
2023-03-17T10:09:41.876Z,17.05
2023-03-17T10:12:38.721Z,17.35
2023-03-17T10:15:27.895Z,17.50
2023-03-17T10:17:56.745Z,17.74
2023-03-17T10:20:36.022Z,17.79
2023-03-17T10:23:09.849Z,18.42
2023-03-17T10:25:42.344Z,18.41
2023-03-17T10:28:26.193Z,18.80
2023-03-17T10:31:08.512Z,19.14
2023-03-17T10:33:34.997Z,19.28
2023-03-17T10:36:09.591Z,19.44
2023-03-17T10:38:39.080Z,19.46
2023-03-17T10:41:14.042Z,19.37
2023-03-17T10:43:48.390Z,19.74
2023-03-17T10:46:31.094Z,19.70
2023-03-17T10:49:07.018Z,19.30
2023-03-17T10:51:38.271Z,18.70
2023-03-17T10:54:20.396Z,18.11
2023-03-17T10:56:50.216Z,17.87
2023-03-17T10:59:25.781Z,18.29
2023-03-17T11:01:54.373Z,17.93
2023-03-17T11:04:34.076Z,17.89
2023-03-17T11:07:12.478Z,17.72
2023-03-17T11:09:38.928Z,17.87
2023-03-17T11:12:21.285Z,17.84
2023-03-17T11:14:49.243Z,18.01
2023-03-17T11:17:40.230Z,18.21
2023-03-17T11:20:12.856Z,17.96
2023-03-17T11:22:52.133Z,17.99
2023-03-17T11:25:20.592Z,18.13
2023-03-17T11:28:02.929Z,18.33
2023-03-17T11:30:30.449Z,18.33
2023-03-17T11:33:00.925Z,18.05
2023-03-17T11:35:43.503Z,18.03
2023-03-17T11:38:28.559Z,18.21
2023-03-17T11:41:09.602Z,18.31
2023-03-17T11:44:18.446Z,18.77
2023-03-17T11:47:23.350Z,19.18
2023-03-17T11:50:07.585Z,19.36
2023-03-17T11:53:06.738Z,19.29
2023-03-17T11:55:48.419Z,19.22
2023-03-17T11:58:37.051Z,19.40
2023-03-17T12:01:09.058Z,19.32
2023-03-17T12:03:51.452Z,19.17
2023-03-17T12:06:31.788Z,19.04
2023-03-17T12:09:07.789Z,18.89
2023-03-17T12:11:40.577Z,18.77
2023-03-17T12:14:23.194Z,18.64
2023-03-17T12:16:57.102Z,18.83
2023-03-17T12:19:31.443Z,18.88
2023-03-17T12:22:06.678Z,19.38
2023-03-17T12:24:43.785Z,19.59
2023-03-17T12:27:29.927Z,19.74
2023-03-17T12:30:02.598Z,19.85
2023-03-17T12:32:39.708Z,20.07
2023-03-17T12:35:26.315Z,19.65
2023-03-17T12:37:53.584Z,19.56
2023-03-17T12:40:26.273Z,19.42
2023-03-17T12:43:02.135Z,19.54
2023-03-17T12:46:03.049Z,19.80
2023-03-17T12:49:00.363Z,19.75
2023-03-17T12:51:58.721Z,19.81
2023-03-17T12:54:30.633Z,19.80
2023-03-17T12:57:17.503Z,19.66
2023-03-17T12:59:46.650Z,19.66
2023-03-17T13:02:38.167Z,19.37
2023-03-17T13:05:15.278Z,19.37
2023-03-17T13:08:01.669Z,19.76
2023-03-17T13:10:42.116Z,20.16
2023-03-17T13:13:36.642Z,20.14
2023-03-17T13:16:34.935Z,20.31
2023-03-17T13:19:18.690Z,20.37
2023-03-17T13:21:50.582Z,20.46
2023-03-17T13:24:17.100Z,20.26
2023-03-17T13:26:47.970Z,20.25
2023-03-17T13:29:33.530Z,20.08
2023-03-17T13:32:24.848Z,19.33
2023-03-17T13:35:02.302Z,19.33
2023-03-17T13:37:34.658Z,19.48
2023-03-17T13:40:31.705Z,19.37
2023-03-17T13:43:26.418Z,19.29
2023-03-17T13:45:56.066Z,19.14
2023-03-17T13:48:27.013Z,19.16
2023-03-17T13:51:02.005Z,19.24
2023-03-17T13:53:51.501Z,19.11
2023-03-17T13:56:36.202Z,19.09
2023-03-17T13:59:02.912Z,19.01
2023-03-17T14:01:36.273Z,18.81
2023-03-17T14:04:05.489Z,18.63
2023-03-17T14:06:37.368Z,18.43
2023-03-17T14:09:23.567Z,18.28
2023-03-17T14:11:54.706Z,18.25
2023-03-17T14:14:36.760Z,18.41
2023-03-17T14:17:24.587Z,18.56
2023-03-17T14:20:09.454Z,18.44
2023-03-17T14:22:48.567Z,18.19
2023-03-17T14:25:17.864Z,18.22
2023-03-17T14:27:51.077Z,18.29
2023-03-17T14:30:23.945Z,18.24
2023-03-17T14:33:06.572Z,18.15
2023-03-17T14:35:37.477Z,17.85
2023-03-17T14:38:17.415Z,17.99
2023-03-17T14:40:43.932Z,18.00
2023-03-17T14:43:11.089Z,17.93
2023-03-17T14:45:58.836Z,18.06
2023-03-17T14:48:32.511Z,17.92
2023-03-17T14:51:05.741Z,17.88
2023-03-17T14:53:40.657Z,17.92
2023-03-17T14:56:10.735Z,17.99
2023-03-17T14:58:42.096Z,17.78
2023-03-17T15:01:16.394Z,17.71
2023-03-17T15:03:57.616Z,17.81
2023-03-17T15:06:27.520Z,17.78
2023-03-17T15:09:11.927Z,17.70
2023-03-17T15:11:43.499Z,17.73
2023-03-17T15:14:21.031Z,17.68
2023-03-17T15:16:50.676Z,17.72
2023-03-17T15:19:35.015Z,17.58
2023-03-17T15:22:20.927Z,17.57
2023-03-17T15:25:01.486Z,17.62
2023-03-17T15:27:29.180Z,17.59
2023-03-17T15:29:55.709Z,17.67
2023-03-17T15:32:23.858Z,17.62
2023-03-17T15:34:54.887Z,17.63
2023-03-17T15:37:28.590Z,17.59
2023-03-17T15:39:55.925Z,17.60
2023-03-17T15:42:33.763Z,17.69
2023-03-17T15:45:01.565Z,17.53
2023-03-17T15:47:31.155Z,17.57
2023-03-17T15:50:01.920Z,17.56
2023-03-17T15:52:32.810Z,17.25
2023-03-17T15:54:59.919Z,17.25
2023-03-17T15:57:27.359Z,17.04
2023-03-17T15:59:53.972Z,16.97
2023-03-17T16:02:35.646Z,16.87
2023-03-17T16:05:12.045Z,16.75
2023-03-17T16:07:38.660Z,16.63
2023-03-17T16:10:37.402Z,16.53
2023-03-17T16:13:03.963Z,16.53
2023-03-17T16:15:38.511Z,16.51
2023-03-17T16:18:10.395Z,16.43
2023-03-17T16:20:40.223Z,16.35
2023-03-17T16:23:16.963Z,16.26
2023-03-17T16:25:45.151Z,16.13
2023-03-17T16:28:28.911Z,16.07
2023-03-17T16:30:57.710Z,15.90
2023-03-17T16:33:27.724Z,15.84
2023-03-17T16:35:55.883Z,15.76
2023-03-17T16:38:28.581Z,15.58
2023-03-17T16:40:59.775Z,15.55
2023-03-17T16:43:31.575Z,15.50
2023-03-17T16:46:00.019Z,15.37
2023-03-17T16:48:29.766Z,15.44
2023-03-17T16:50:57.528Z,15.27
2023-03-17T16:53:24.890Z,15.30
2023-03-17T16:55:53.365Z,15.23
2023-03-17T16:58:23.090Z,14.98
2023-03-17T17:00:55.293Z,14.98
2023-03-17T17:03:21.775Z,14.85
2023-03-17T17:05:48.309Z,14.79
2023-03-17T17:08:14.868Z,14.81
2023-03-17T17:10:41.385Z,14.73
2023-03-17T17:13:10.048Z,14.70
2023-03-17T17:15:37.731Z,14.73
2023-03-17T17:18:07.741Z,14.73
2023-03-17T17:20:39.321Z,14.64
2023-03-17T17:23:13.705Z,14.60
2023-03-17T17:25:41.361Z,14.60
2023-03-17T17:28:08.322Z,14.55
2023-03-17T17:30:34.895Z,14.57
2023-03-17T17:33:02.252Z,14.49
2023-03-17T17:35:32.543Z,14.50
2023-03-17T17:38:00.698Z,14.35
2023-03-17T17:40:27.338Z,14.29
2023-03-17T17:42:54.459Z,14.17
2023-03-17T17:45:21.554Z,14.14
2023-03-17T17:47:48.776Z,14.02
2023-03-17T17:50:27.638Z,14.00
2023-03-17T17:52:54.124Z,13.98
2023-03-17T17:55:20.789Z,14.06
2023-03-17T17:57:47.276Z,14.07
2023-03-17T18:00:18.895Z,14.18
2023-03-17T18:02:45.919Z,14.13
2023-03-17T18:05:13.317Z,14.16
2023-03-17T18:07:40.489Z,13.97
2023-03-17T18:10:07.929Z,13.92
2023-03-17T18:12:34.495Z,13.96
2023-03-17T18:15:01.044Z,13.79
2023-03-17T18:17:27.549Z,13.67
2023-03-17T18:19:54.124Z,13.65
2023-03-17T18:22:21.721Z,13.74
2023-03-17T18:24:49.236Z,13.79
2023-03-17T18:27:16.937Z,13.80
2023-03-17T18:29:43.810Z,13.84
2023-03-17T18:32:12.230Z,13.93
2023-03-17T18:34:43.580Z,13.80
2023-03-17T18:37:12.676Z,13.75
2023-03-17T18:39:41.121Z,13.89
2023-03-17T18:42:08.899Z,13.94
2023-03-17T18:44:35.714Z,13.96
2023-03-17T18:47:02.607Z,14.05
2023-03-17T18:49:29.329Z,14.00
2023-03-17T18:51:56.912Z,13.95
2023-03-17T18:54:24.067Z,14.01
2023-03-17T18:56:51.539Z,13.97
2023-03-17T18:59:18.287Z,13.93
2023-03-17T19:01:44.902Z,14.00
2023-03-17T19:04:14.817Z,13.98
2023-03-17T19:06:42.696Z,13.93
2023-03-17T19:09:13.078Z,13.85
2023-03-17T19:11:40.114Z,13.83
2023-03-17T19:14:08.724Z,13.78
2023-03-17T19:16:35.838Z,13.79
2023-03-17T19:19:03.244Z,13.63
2023-03-17T19:21:34.835Z,13.55
2023-03-17T19:24:02.148Z,13.50
2023-03-17T19:26:30.400Z,13.52
2023-03-17T19:28:57.384Z,13.38
2023-03-17T19:31:24.963Z,13.40
2023-03-17T19:33:52.317Z,13.33
2023-03-17T19:36:33.477Z,13.34
2023-03-17T19:39:00.578Z,13.34
2023-03-17T19:41:27.336Z,13.46
2023-03-17T19:43:53.939Z,13.42
2023-03-17T19:46:20.670Z,13.56
2023-03-17T19:48:55.062Z,13.61
2023-03-17T19:51:21.763Z,13.60
2023-03-17T19:53:48.180Z,13.58
2023-03-17T19:56:15.336Z,13.55
2023-03-17T19:58:41.768Z,13.60
2023-03-17T20:01:08.513Z,13.58
2023-03-17T20:03:36.186Z,13.54
2023-03-17T20:06:06.067Z,13.59
2023-03-17T20:08:33.571Z,13.53
2023-03-17T20:11:00.183Z,13.48
2023-03-17T20:13:26.659Z,13.52
2023-03-17T20:15:53.102Z,13.43
2023-03-17T20:18:20.108Z,13.39
2023-03-17T20:20:53.327Z,13.38
2023-03-17T20:23:21.613Z,13.34
2023-03-17T20:25:52.321Z,13.31
2023-03-17T20:28:24.037Z,13.33
2023-03-17T20:30:50.521Z,13.29
2023-03-17T20:33:17.299Z,13.20
2023-03-17T20:35:47.031Z,13.26
2023-03-17T20:38:14.798Z,13.20
2023-03-17T20:40:42.007Z,13.18
2023-03-17T20:43:09.462Z,13.21
2023-03-17T20:45:37.051Z,13.22
2023-03-17T20:48:12.038Z,13.26
2023-03-17T20:50:39.384Z,13.17
2023-03-17T20:53:06.060Z,13.25
2023-03-17T20:55:32.620Z,13.23
2023-03-17T20:58:01.774Z,13.24
2023-03-17T21:00:30.159Z,13.25
2023-03-17T21:02:57.213Z,13.23
2023-03-17T21:05:26.076Z,13.16
2023-03-17T21:07:52.756Z,13.16
2023-03-17T21:10:19.797Z,13.27
2023-03-17T21:12:46.557Z,13.24
2023-03-17T21:15:13.989Z,13.25
2023-03-17T21:17:42.328Z,13.29
2023-03-17T21:20:11.704Z,13.30
2023-03-17T21:22:41.977Z,13.20
2023-03-17T21:25:12.769Z,13.25
2023-03-17T21:27:40.160Z,13.16
2023-03-17T21:30:13.148Z,13.12
2023-03-17T21:32:40.756Z,13.10
2023-03-17T21:35:07.935Z,13.06
2023-03-17T21:37:35.466Z,13.11
2023-03-17T21:40:08.182Z,13.12
2023-03-17T21:42:34.778Z,13.09
2023-03-17T21:45:01.675Z,13.12
2023-03-17T21:47:30.002Z,13.13
2023-03-17T21:49:57.914Z,13.11
2023-03-17T21:52:25.119Z,13.16
2023-03-17T21:54:53.120Z,13.18
2023-03-17T21:57:21.912Z,13.16
2023-03-17T21:59:48.819Z,13.11
2023-03-17T22:02:18.833Z,13.08
2023-03-17T22:04:46.896Z,13.01
2023-03-17T22:07:13.771Z,12.97
2023-03-17T22:09:40.403Z,12.96
2023-03-17T22:12:07.206Z,12.93
2023-03-17T22:14:35.525Z,12.96
2023-03-17T22:17:07.891Z,12.88
2023-03-17T22:19:34.475Z,12.90
2023-03-17T22:22:01.949Z,12.82
2023-03-17T22:24:28.406Z,12.84
2023-03-17T22:26:55.935Z,12.80
2023-03-17T22:29:22.436Z,12.78
2023-03-17T22:31:51.169Z,12.80
2023-03-17T22:34:18.172Z,12.82
2023-03-17T22:36:44.695Z,12.69
2023-03-17T22:39:11.781Z,12.69
2023-03-17T22:41:39.184Z,12.70
2023-03-17T22:44:11.834Z,12.70
2023-03-17T22:46:40.971Z,12.74
2023-03-17T22:49:07.882Z,12.66
2023-03-17T22:51:34.891Z,12.71
2023-03-17T22:54:02.342Z,12.65
2023-03-17T22:56:29.229Z,12.68
2023-03-17T22:58:56.629Z,12.58
2023-03-17T23:01:25.721Z,12.56
2023-03-17T23:03:53.136Z,12.57
2023-03-17T23:06:20.741Z,12.55
2023-03-17T23:08:47.733Z,12.47
2023-03-17T23:11:21.221Z,12.46
2023-03-17T23:13:48.259Z,12.38
2023-03-17T23:16:15.646Z,12.48
2023-03-17T23:18:46.091Z,12.46
2023-03-17T23:21:22.306Z,12.43
2023-03-17T23:23:49.573Z,12.46
2023-03-17T23:26:16.825Z,12.44
2023-03-17T23:28:44.915Z,12.41
2023-03-17T23:31:11.401Z,12.48
2023-03-17T23:33:41.645Z,12.46
2023-03-17T23:36:09.170Z,12.42
2023-03-17T23:38:36.578Z,12.44
2023-03-17T23:41:03.608Z,12.40
2023-03-17T23:43:30.071Z,12.17
2023-03-17T23:45:58.857Z,12.21
2023-03-17T23:48:25.309Z,12.16
2023-03-17T23:50:53.176Z,12.35
2023-03-17T23:53:21.716Z,12.31
2023-03-17T23:55:48.187Z,12.23
2023-03-17T23:58:15.596Z,12.10
